Billings, MT

12:08 AM MST on December 21, 2014 (GMT -0700)
South Big Horn County | Change Station
CLOSE
Current Station
Airport
Location: Greybull,
Elevation: 3934 ft
Nearby Weather Stations

Elev 3934 ft 44.52 °N, 108.08 °W | Updated 15 minutes ago

Mostly Cloudy
Mostly Cloudy
13 °F
Feels Like 13 °F
N
0
Wind Variable Wind from North

Today
High -- | Low -- °F
--% Chance of Precip.
Yesterday
High -- | Low -- °F
Precip. -- in
7:52 AM 4:32 PM
Waning Crescent, 1% visible
Pressure 29.94 in
Visibility 10.0 miles
Clouds Clear
Dew Point 11 °F
Humidity 92%
Rainfall 0.00 in
Snow Depth Not available.
UV 0 out of 12
Pollen .10 out of 12
Air Quality Not available.
Flu Activity Not available.
METAR KGEY 210653Z AUTO 00000KT 10SM CLR M11/M12 A2977 RMK AO2 SLP136 T11061117 410281128

More Conditions Fewer Conditions

Pressure 29.94 in
Visibility 10.0 miles
Clouds Clear
Dew Point 11 °F
Humidity 92%
Rainfall 0.00 in
Snow Depth Not available.
UV 0 out of 12
Pollen .10 out of 12
Air Quality Not available.
Flu Activity Not available.
METAR KGEY 210653Z AUTO 00000KT 10SM CLR M11/M12 A2977 RMK AO2 SLP136 T11061117 410281128

More Conditions Fewer Conditions

10-Day Weather Forecast

Almanac

Astronomy

Dec. 21, 2014 Rise Set
Actual Time
Civil Twilight
Nautical Twilight
Astronomical Twilight
Moon
Length of Visible Light
Length of Day
Tomorrow will be .
, % of the Moon is Illuminated

Today's Extremes

State Highs State Lows

Community

WunderPhotos

Upload Photos

1,779,362 photos uploaded!

WunderBlogs® & News

Nearby

Air Quality

  Air Quality AQ Index Pollutant
Not available.

Snow Depth

Station Depth Elevation

Earthquake Activity

City Distance Mag. Time & Date
Minimum magnitude displayed is 2.5.

Coastal Water Temperatures

Place Temperature

Nearby Weather Stations